Skip Navigation Links Skip Navigation Links

Current Weather

Manistee Co.-Blacker, Manistee, Mich.

For information only: do not use for flight planning or navigation.
Latest weather
Observation time Saturday, October 19, 2019 5:56 AM EDT
Local time Saturday, October 19, 2019 6:26 AM EDT
Flight conditions Visual Meteorological Conditions
Winds
Wind direction East-Southeast (120°)
Wind speed 7 mph
Visibility 10 mi.
Sky condition
Ceiling unlimited
Sky clear
Temperature 41°F
Dewpoint 37°F
Altimeter 29.89 in.Hg
Derived measurements
Relative humidity 86%
Wind chill 36°F
Density altitude -441 ft.
Sea-level pressure 29.90 in.Hg
Remarks
Fully automated report.
Automated weather observing station with precipitation discriminator.
METAR KMBL 190956Z AUTO 12006KT 10SM CLR 05/03 A2989 RMK AO2 SLP126 T00500028

Settings

Location code

InnerDrive.Weather 4.0.6770.0 Release CLR 4.0.30319.42000
Copyright ©2018 Inner Drive Technology. All rights reserved. Portions Copyright ©1986-2018 David Braverman.

Find weather

Site navigation


Skip Navigation Links

Place info

Page info

PayPal - The safer, easier way to pay online!

Return home.

Copyright ©2019 Inner Drive Technology. Purveyors of fine, hand-crafted computer software. Page printed 2019-10-19T10:26:34 UTC.